Emerson, Canada
Current Conditions -  °F | °C
As of 10:35 AM on Sunday 25 Jan 2015 (Local Time) from KHCO Reporting Station
Clear Clear  
Wind Chill:   Ceiling: Unl
Heat Index: 12°   Visibility: 10mi
Dew Point:   Wind: 6mph
Humidity: 79%   Direction: 140°SE
Pressure: 30.05"   Gusts: NA
Location:  49.01°N, 97.2°W
Report Text: KHCO 251635Z AUTO 14005KT 10SM CLR M11/M14 A3005 RMK AO2
Loading
Personal Weather Stations






























Interactive Weather Map New forecast layout! Learn more

10-Day Weather Forecast

Advertisements
Track Severe Weather on mobile